createdAt,value
2017-12-29T00:00:45.191Z,36.21
2017-12-29T00:01:45.183Z,35.45
2017-12-29T00:02:45.147Z,35.26
2017-12-29T00:03:45.166Z,34.56
2017-12-29T00:04:45.143Z,35.06
2017-12-29T00:05:45.137Z,35.64
2017-12-29T00:06:45.843Z,36.13
2017-12-29T00:07:45.148Z,35.06
2017-12-29T00:08:45.342Z,35.26
2017-12-29T00:09:45.845Z,35.84
2017-12-29T00:10:45.146Z,35.64
2017-12-29T00:11:45.148Z,36.13
2017-12-29T00:12:45.145Z,37.00
2017-12-29T00:13:45.146Z,36.03
2017-12-29T00:14:45.152Z,35.74
2017-12-29T00:15:45.348Z,35.94
2017-12-29T00:16:45.165Z,35.94
2017-12-29T00:17:45.145Z,36.22
2017-12-29T00:18:45.145Z,36.03
2017-12-29T00:19:45.348Z,36.52
2017-12-29T00:20:45.149Z,37.29
2017-12-29T00:21:45.149Z,35.84
2017-12-29T00:22:45.340Z,36.03
2017-12-29T00:23:45.350Z,36.52
2017-12-29T00:24:45.175Z,36.90
2017-12-29T00:25:45.349Z,36.80
2017-12-29T00:26:45.142Z,36.90
2017-12-29T00:27:45.142Z,36.22
2017-12-29T00:28:45.150Z,36.90
2017-12-29T00:29:45.355Z,37.10
2017-12-29T00:30:45.349Z,35.64
2017-12-29T00:31:45.144Z,36.42
2017-12-29T00:32:45.360Z,36.22
2017-12-29T00:33:45.355Z,35.94
2017-12-29T00:34:45.356Z,35.16
2017-12-29T00:35:45.149Z,37.00
2017-12-29T00:36:45.353Z,37.38
2017-12-29T00:37:45.348Z,37.29
2017-12-29T00:38:45.143Z,36.32
2017-12-29T00:39:45.148Z,37.29
2017-12-29T00:40:45.367Z,37.19
2017-12-29T00:41:45.358Z,37.29
2017-12-29T00:42:45.146Z,37.19
2017-12-29T00:43:45.353Z,37.10
2017-12-29T00:44:45.152Z,37.10
2017-12-29T00:45:45.148Z,37.38
2017-12-29T00:46:45.354Z,36.42
2017-12-29T00:47:45.155Z,36.80
2017-12-29T00:48:45.347Z,37.10
2017-12-29T00:49:45.353Z,36.03
2017-12-29T00:50:45.347Z,36.52
2017-12-29T00:51:45.355Z,37.00
2017-12-29T00:52:45.152Z,36.42
2017-12-29T00:53:45.356Z,36.90
2017-12-29T00:54:45.156Z,36.90
2017-12-29T00:55:45.409Z,37.10
2017-12-29T00:56:45.151Z,36.90
2017-12-29T00:57:45.351Z,37.29
2017-12-29T00:58:45.147Z,37.10
2017-12-29T00:59:45.153Z,38.06
2017-12-29T01:00:45.152Z,38.06
2017-12-29T01:01:45.166Z,38.06
2017-12-29T01:02:45.347Z,38.16
2017-12-29T01:03:45.163Z,37.77
2017-12-29T01:04:45.160Z,38.16
2017-12-29T01:05:45.193Z,38.64
2017-12-29T01:06:45.357Z,37.00
2017-12-29T01:07:45.348Z,37.58
2017-12-29T01:08:45.157Z,37.29
2017-12-29T01:09:45.160Z,37.67
2017-12-29T01:10:45.154Z,38.06
2017-12-29T01:11:45.359Z,38.06
2017-12-29T01:12:45.354Z,38.06
2017-12-29T01:13:45.352Z,38.45
2017-12-29T01:14:45.360Z,37.96
2017-12-29T01:15:45.361Z,38.25
2017-12-29T01:16:45.354Z,38.74
2017-12-29T01:17:45.353Z,38.06
2017-12-29T01:18:45.415Z,37.58
2017-12-29T01:19:45.362Z,38.25
2017-12-29T01:20:45.359Z,38.64
2017-12-29T01:21:45.354Z,38.54
2017-12-29T01:22:45.152Z,37.67
2017-12-29T01:23:45.354Z,38.16
2017-12-29T01:24:45.162Z,37.29
2017-12-29T01:25:45.153Z,36.32
2017-12-29T01:26:45.360Z,36.42
2017-12-29T01:27:45.156Z,37.38
2017-12-29T01:28:45.170Z,37.19
2017-12-29T01:29:45.357Z,38.16
2017-12-29T01:30:45.357Z,36.71
2017-12-29T01:31:45.354Z,37.87
2017-12-29T01:32:45.158Z,37.96
2017-12-29T01:33:45.169Z,38.06
2017-12-29T01:34:45.375Z,37.58
2017-12-29T01:35:45.159Z,37.19
2017-12-29T01:36:45.171Z,36.32
2017-12-29T01:37:45.365Z,37.48
2017-12-29T01:38:45.163Z,36.80
2017-12-29T01:39:45.360Z,35.84
2017-12-29T01:40:45.359Z,37.48
2017-12-29T01:41:45.168Z,36.90
2017-12-29T01:42:45.161Z,35.94
2017-12-29T01:43:45.171Z,35.74
2017-12-29T01:44:45.359Z,35.74
2017-12-29T01:45:45.167Z,36.32
2017-12-29T01:46:45.358Z,36.22
2017-12-29T01:47:45.165Z,37.29
2017-12-29T01:48:45.358Z,37.96
2017-12-29T01:49:45.379Z,38.06
2017-12-29T01:50:45.371Z,36.90
2017-12-29T01:51:45.391Z,37.10
2017-12-29T01:52:45.164Z,38.06
2017-12-29T01:53:45.200Z,35.64
2017-12-29T01:54:45.366Z,36.71
2017-12-29T01:55:45.361Z,37.38
2017-12-29T01:56:45.365Z,37.00
2017-12-29T01:57:45.386Z,36.71
2017-12-29T01:58:45.172Z,37.10
2017-12-29T01:59:45.162Z,37.77
2017-12-29T02:00:45.361Z,37.38
2017-12-29T02:01:45.360Z,37.19
2017-12-29T02:02:45.363Z,37.10
2017-12-29T02:03:45.370Z,37.38
2017-12-29T02:04:45.364Z,37.67
2017-12-29T02:05:45.383Z,38.16
2017-12-29T02:06:45.369Z,37.48
2017-12-29T02:07:45.186Z,37.19
2017-12-29T02:08:45.366Z,37.10
2017-12-29T02:09:45.363Z,37.10
2017-12-29T02:10:45.375Z,37.48
2017-12-29T02:11:45.178Z,37.00
2017-12-29T02:12:45.371Z,37.19
2017-12-29T02:13:45.373Z,37.29
2017-12-29T02:14:45.368Z,37.10
2017-12-29T02:15:45.374Z,38.16
2017-12-29T02:16:45.372Z,38.06
2017-12-29T02:17:45.377Z,37.29
2017-12-29T02:18:45.370Z,37.19
2017-12-29T02:19:45.174Z,37.00
2017-12-29T02:20:45.376Z,36.80
2017-12-29T02:21:45.369Z,36.52
2017-12-29T02:22:45.179Z,35.64
2017-12-29T02:23:45.390Z,36.03
2017-12-29T02:24:45.172Z,35.36
2017-12-29T02:25:45.370Z,35.26
2017-12-29T02:26:45.379Z,36.13
2017-12-29T02:27:45.372Z,36.71
2017-12-29T02:28:45.373Z,35.45
2017-12-29T02:29:45.369Z,35.94
2017-12-29T02:30:45.371Z,35.37
2017-12-29T02:31:45.385Z,36.52
2017-12-29T02:32:45.172Z,35.84
2017-12-29T02:33:45.396Z,35.06
2017-12-29T02:34:45.427Z,35.26
2017-12-29T02:35:45.383Z,35.84
2017-12-29T02:36:45.391Z,36.03
2017-12-29T02:37:45.175Z,35.84
2017-12-29T02:38:45.380Z,35.16
2017-12-29T02:39:45.379Z,35.45
2017-12-29T02:40:45.403Z,36.22
2017-12-29T02:41:45.396Z,35.84
2017-12-29T02:42:45.378Z,36.22
2017-12-29T02:43:45.381Z,36.13
2017-12-29T02:44:45.385Z,35.45
2017-12-29T02:45:45.374Z,35.55
2017-12-29T02:46:45.382Z,35.45
2017-12-29T02:47:45.381Z,35.45
2017-12-29T02:48:45.386Z,36.03
2017-12-29T02:49:45.418Z,35.36
2017-12-29T02:50:45.381Z,35.64
2017-12-29T02:51:45.379Z,35.06
2017-12-29T02:52:45.385Z,35.26
2017-12-29T02:53:45.380Z,35.84
2017-12-29T02:54:45.392Z,35.45
2017-12-29T02:55:45.385Z,35.84
2017-12-29T02:56:45.180Z,35.36
2017-12-29T02:57:45.389Z,35.74
2017-12-29T02:58:45.384Z,35.94
2017-12-29T02:59:45.387Z,35.74
2017-12-29T03:00:45.398Z,35.84
2017-12-29T03:01:45.391Z,35.45
2017-12-29T03:02:45.384Z,35.74
2017-12-29T03:03:45.387Z,35.45
2017-12-29T03:04:45.187Z,35.26
2017-12-29T03:05:45.388Z,35.45
2017-12-29T03:06:45.386Z,35.74
2017-12-29T03:07:45.386Z,35.74
2017-12-29T03:08:45.395Z,35.64
2017-12-29T03:09:45.391Z,35.74
2017-12-29T03:10:45.383Z,35.84
2017-12-29T03:11:45.390Z,35.06
2017-12-29T03:12:45.385Z,35.64
2017-12-29T03:13:45.392Z,35.45
2017-12-29T03:14:45.191Z,35.55
2017-12-29T03:15:45.394Z,35.45
2017-12-29T03:16:45.200Z,35.16
2017-12-29T03:17:45.389Z,35.06
2017-12-29T03:18:45.387Z,35.26
2017-12-29T03:19:45.389Z,35.36
2017-12-29T03:20:45.198Z,35.26
2017-12-29T03:21:45.393Z,35.55
2017-12-29T03:22:45.399Z,35.06
2017-12-29T03:23:45.396Z,35.16
2017-12-29T03:24:45.453Z,35.06
2017-12-29T03:25:45.393Z,35.06
2017-12-29T03:26:45.394Z,35.45
2017-12-29T03:27:45.399Z,35.36
2017-12-29T03:28:45.393Z,35.26
2017-12-29T03:29:45.201Z,34.87
2017-12-29T03:30:45.399Z,35.16
2017-12-29T03:31:45.393Z,35.16
2017-12-29T03:32:45.405Z,35.64
2017-12-29T03:33:45.394Z,35.45
2017-12-29T03:34:45.397Z,35.55
2017-12-29T03:35:45.392Z,35.45
2017-12-29T03:36:45.399Z,35.06
2017-12-29T03:37:45.400Z,35.06
2017-12-29T03:38:45.414Z,35.45
2017-12-29T03:39:45.406Z,35.06
2017-12-29T03:40:45.403Z,35.06
2017-12-29T03:41:45.402Z,35.16
2017-12-29T03:42:45.397Z,35.45
2017-12-29T03:43:45.399Z,35.45
2017-12-29T03:44:45.405Z,35.06
2017-12-29T03:45:45.225Z,35.16
2017-12-29T03:46:45.402Z,35.74
2017-12-29T03:47:45.398Z,35.16
2017-12-29T03:48:45.409Z,35.06
2017-12-29T03:49:45.406Z,35.84
2017-12-29T03:50:45.403Z,34.78
2017-12-29T03:51:45.404Z,34.87
2017-12-29T03:52:45.407Z,35.26
2017-12-29T03:53:45.398Z,35.26
2017-12-29T03:54:45.400Z,35.36
2017-12-29T03:55:45.409Z,35.06
2017-12-29T03:56:45.406Z,35.26
2017-12-29T03:57:45.202Z,35.16
2017-12-29T03:58:45.400Z,35.36
2017-12-29T03:59:45.401Z,35.55
2017-12-29T04:00:45.433Z,35.64
2017-12-29T04:01:45.403Z,35.06
2017-12-29T04:02:45.951Z,35.26
2017-12-29T04:03:45.401Z,35.16
2017-12-29T04:04:45.411Z,35.45
2017-12-29T04:05:45.409Z,35.16
2017-12-29T04:06:45.412Z,35.26
2017-12-29T04:07:45.415Z,35.74
2017-12-29T04:08:45.413Z,35.26
2017-12-29T04:09:45.487Z,35.45
2017-12-29T04:10:45.414Z,35.26
2017-12-29T04:11:45.441Z,35.55
2017-12-29T04:12:45.426Z,35.06
2017-12-29T04:13:45.414Z,34.87
2017-12-29T04:14:45.408Z,35.16
2017-12-29T04:15:45.409Z,35.06
2017-12-29T04:16:45.410Z,35.06
2017-12-29T04:17:45.405Z,35.45
2017-12-29T04:18:45.409Z,34.78
2017-12-29T04:19:45.209Z,35.45
2017-12-29T04:20:45.207Z,35.06
2017-12-29T04:21:45.411Z,35.26
2017-12-29T04:22:45.415Z,35.55
2017-12-29T04:23:45.412Z,35.06
2017-12-29T04:24:45.420Z,35.45
2017-12-29T04:25:45.413Z,35.26
2017-12-29T04:26:45.412Z,34.97
2017-12-29T04:27:45.417Z,35.16
2017-12-29T04:28:45.418Z,35.26
2017-12-29T04:29:45.214Z,35.74
2017-12-29T04:30:45.415Z,36.52
2017-12-29T04:31:45.410Z,36.13
2017-12-29T04:32:45.414Z,35.74
2017-12-29T04:33:45.412Z,35.26
2017-12-29T04:34:45.218Z,34.68
2017-12-29T04:35:45.417Z,35.84
2017-12-29T04:36:45.460Z,35.45
2017-12-29T04:37:45.428Z,35.26
2017-12-29T04:38:45.426Z,35.16
2017-12-29T04:39:45.458Z,35.45
2017-12-29T04:40:45.448Z,35.55
2017-12-29T04:41:45.414Z,35.84
2017-12-29T04:42:45.425Z,35.45
2017-12-29T04:43:45.418Z,35.55
2017-12-29T04:44:45.421Z,35.26
2017-12-29T04:45:45.430Z,35.84
2017-12-29T04:46:45.421Z,34.97
2017-12-29T04:47:45.442Z,35.26
2017-12-29T04:48:45.583Z,35.06
2017-12-29T04:49:45.430Z,35.84
2017-12-29T04:50:45.434Z,35.84
2017-12-29T04:51:45.423Z,36.22
2017-12-29T04:52:45.432Z,36.52
2017-12-29T04:53:45.421Z,36.80
2017-12-29T04:54:45.432Z,36.42
2017-12-29T04:55:45.433Z,36.03
2017-12-29T04:56:45.426Z,35.74
2017-12-29T04:57:45.435Z,35.26
2017-12-29T04:58:45.426Z,35.45
2017-12-29T04:59:45.438Z,35.36
2017-12-29T05:00:45.424Z,35.74
2017-12-29T05:01:45.432Z,35.94
2017-12-29T05:02:45.244Z,35.55
2017-12-29T05:03:45.223Z,35.84
2017-12-29T05:04:45.432Z,36.03
2017-12-29T05:05:45.422Z,35.74
2017-12-29T05:06:45.425Z,35.55
2017-12-29T05:07:45.432Z,35.84
2017-12-29T05:08:45.434Z,35.64
2017-12-29T05:09:45.426Z,35.45
2017-12-29T05:10:45.429Z,35.36
2017-12-29T05:11:45.475Z,35.45
2017-12-29T05:12:45.436Z,35.74
2017-12-29T05:13:45.440Z,35.64
2017-12-29T05:14:45.459Z,35.94
2017-12-29T05:15:45.449Z,35.74
2017-12-29T05:16:45.468Z,35.55
2017-12-29T05:17:45.504Z,34.97
2017-12-29T05:18:45.453Z,35.36
2017-12-29T05:19:45.474Z,35.36
2017-12-29T05:20:45.360Z,35.45
2017-12-29T05:21:45.501Z,34.87
2017-12-29T05:22:45.511Z,35.06
2017-12-29T05:23:45.448Z,35.16
2017-12-29T05:24:45.518Z,34.87
2017-12-29T05:25:45.449Z,35.84
2017-12-29T05:26:45.233Z,35.84
2017-12-29T05:27:45.436Z,35.94
2017-12-29T05:28:45.445Z,35.16
2017-12-29T05:29:45.433Z,34.87
2017-12-29T13:00:50.253Z,39.12
2017-12-29T13:01:50.063Z,39.12
2017-12-29T13:02:50.026Z,39.61
2017-12-29T13:03:50.007Z,40.96
2017-12-29T13:04:50.002Z,40.57
2017-12-29T13:05:50.208Z,40.38
2017-12-29T13:06:50.003Z,41.54
2017-12-29T13:07:49.998Z,41.73
2017-12-29T13:08:50.190Z,41.05
2017-12-29T13:09:50.195Z,40.57
2017-12-29T13:10:49.987Z,41.05
2017-12-29T13:11:49.985Z,40.28
2017-12-29T13:12:50.186Z,40.67
2017-12-29T13:13:49.983Z,40.57
2017-12-29T13:14:50.185Z,40.38
2017-12-29T13:15:49.980Z,41.63
2017-12-29T13:16:50.201Z,40.67
2017-12-29T13:17:49.983Z,41.17
2017-12-29T13:18:49.983Z,40.98
2017-12-29T13:19:49.986Z,40.28
2017-12-29T13:20:49.976Z,42.04
2017-12-29T13:21:49.975Z,40.98
2017-12-29T13:22:50.175Z,41.66
2017-12-29T13:23:49.976Z,40.69
2017-12-29T13:24:49.966Z,38.85
2017-12-29T13:25:50.176Z,39.43
2017-12-29T13:26:50.166Z,41.17
2017-12-29T13:27:49.967Z,41.75
2017-12-29T13:28:49.981Z,41.56
2017-12-29T13:29:49.968Z,41.56
2017-12-29T13:30:49.982Z,41.66
2017-12-29T13:31:50.180Z,41.08
2017-12-29T13:32:49.972Z,41.36
2017-12-29T13:33:49.974Z,41.36
2017-12-29T13:34:49.964Z,41.75
2017-12-29T13:35:49.970Z,39.92
2017-12-29T13:36:49.970Z,41.66
2017-12-29T13:37:49.968Z,40.20
2017-12-29T13:38:49.976Z,41.46
2017-12-29T13:39:49.977Z,39.24
2017-12-29T13:40:49.974Z,41.08
2017-12-29T13:41:50.173Z,41.08
2017-12-29T13:42:49.993Z,41.36
2017-12-29T13:43:49.995Z,41.08
2017-12-29T13:44:49.977Z,41.36
2017-12-29T13:45:49.970Z,41.46
2017-12-29T13:46:49.971Z,41.94
2017-12-29T13:47:49.983Z,42.55
2017-12-29T13:48:49.987Z,40.30
2017-12-29T13:49:49.977Z,41.56
2017-12-29T13:50:49.979Z,40.90
2017-12-29T13:51:49.982Z,41.94
2017-12-29T13:52:50.000Z,41.58
2017-12-29T13:53:49.992Z,41.67
2017-12-29T13:54:50.194Z,41.58
2017-12-29T13:55:49.995Z,41.97
2017-12-29T13:56:50.007Z,42.55
2017-12-29T13:57:49.988Z,42.45
2017-12-29T13:58:50.175Z,42.45
2017-12-29T13:59:49.980Z,42.65
2017-12-29T14:00:49.979Z,42.35
2017-12-29T14:01:49.987Z,43.03
2017-12-29T14:02:49.987Z,43.61
2017-12-29T14:03:49.991Z,43.61
2017-12-29T14:04:50.180Z,42.93
2017-12-29T14:05:49.980Z,41.67
2017-12-29T14:06:50.213Z,43.41
2017-12-29T14:07:50.193Z,43.61
2017-12-29T14:08:49.991Z,43.51
2017-12-29T14:09:50.187Z,43.61
2017-12-29T14:10:50.198Z,43.61
2017-12-29T14:11:49.989Z,41.58
2017-12-29T14:12:49.989Z,43.13
2017-12-29T14:13:49.997Z,43.32
2017-12-29T14:14:49.995Z,43.71
2017-12-29T14:15:49.991Z,43.51
2017-12-29T14:16:50.000Z,43.61
2017-12-29T14:17:49.990Z,43.99
2017-12-29T14:18:49.997Z,44.19
2017-12-29T14:19:50.201Z,43.61
2017-12-29T14:20:50.204Z,43.71
2017-12-29T14:21:49.996Z,43.99
2017-12-29T14:22:50.010Z,43.80
2017-12-29T14:23:50.195Z,43.99
2017-12-29T14:24:49.999Z,44.09
2017-12-29T14:25:49.999Z,44.29
2017-12-29T14:26:50.002Z,44.29
2017-12-29T14:27:50.205Z,43.71
2017-12-29T14:28:50.205Z,44.19
2017-12-29T14:29:50.004Z,44.48
2017-12-29T14:30:50.010Z,44.19
2017-12-29T14:31:50.009Z,44.57
2017-12-29T14:32:50.003Z,45.06
2017-12-29T14:33:50.006Z,45.16
2017-12-29T14:34:50.007Z,45.25
2017-12-29T14:35:50.216Z,45.54
2017-12-29T14:36:50.008Z,45.45
2017-12-29T14:37:50.032Z,45.35
2017-12-29T14:38:50.018Z,45.64
2017-12-29T14:39:50.010Z,45.25
2017-12-29T14:40:50.011Z,45.57
2017-12-29T14:41:50.350Z,46.22
2017-12-29T14:42:50.019Z,46.03
2017-12-29T14:43:50.235Z,46.32
2017-12-29T14:44:50.060Z,46.34
2017-12-29T14:45:50.216Z,46.32
2017-12-29T14:46:50.021Z,45.37
2017-12-29T14:47:50.225Z,46.15
2017-12-29T14:48:50.220Z,46.32
2017-12-29T14:49:50.031Z,46.25
2017-12-29T14:50:50.037Z,46.25
2017-12-29T14:51:50.040Z,46.25
2017-12-29T14:52:50.027Z,46.25
2017-12-29T14:53:50.030Z,46.03
2017-12-29T14:54:50.248Z,46.03
2017-12-29T14:55:50.036Z,46.42
2017-12-29T14:56:50.231Z,46.12
2017-12-29T14:57:50.344Z,46.32
2017-12-29T14:58:50.043Z,46.03
2017-12-29T14:59:50.037Z,46.03
2017-12-29T15:00:50.036Z,46.61
2017-12-29T15:01:50.233Z,46.70
2017-12-29T15:02:50.035Z,46.34
2017-12-29T15:03:50.042Z,47.09
2017-12-29T15:04:50.039Z,47.38
2017-12-29T15:05:50.046Z,47.28
2017-12-29T15:06:50.241Z,47.09
2017-12-29T15:07:50.055Z,47.48
2017-12-29T15:08:50.043Z,47.48
2017-12-29T15:09:50.247Z,47.38
2017-12-29T15:10:50.046Z,46.42
2017-12-29T15:11:50.258Z,46.22
2017-12-29T15:12:50.042Z,46.34
2017-12-29T15:13:50.057Z,45.08
2017-12-29T15:14:50.252Z,44.40
2017-12-29T15:15:50.054Z,43.90
2017-12-29T15:16:50.059Z,45.25
2017-12-29T15:17:50.259Z,43.54
2017-12-29T15:18:50.060Z,43.71
2017-12-29T15:19:50.063Z,43.92
2017-12-29T15:20:50.283Z,43.90
2017-12-29T15:21:50.058Z,38.08
2017-12-29T15:22:50.065Z,33.78
2017-12-29T15:23:50.059Z,36.29
2017-12-29T15:24:50.061Z,39.59
2017-12-29T15:25:50.062Z,40.94
2017-12-29T15:26:50.068Z,36.50
2017-12-29T15:27:50.064Z,41.05
2017-12-29T15:28:50.068Z,42.50
2017-12-29T15:29:50.073Z,40.57
2017-12-29T15:30:50.068Z,38.06
2017-12-29T15:31:50.100Z,33.50
2017-12-29T15:32:50.075Z,32.21
2017-12-29T15:33:50.395Z,32.09
2017-12-29T15:34:50.860Z,33.82
2017-12-29T15:35:50.069Z,34.32
2017-12-29T15:36:50.074Z,35.78
2017-12-29T15:37:50.069Z,37.25
2017-12-29T15:38:50.081Z,38.81
2017-12-29T15:39:50.291Z,40.07
2017-12-29T15:40:50.073Z,39.20
2017-12-29T15:41:50.072Z,39.51
2017-12-29T15:42:50.080Z,37.48
2017-12-29T15:43:50.080Z,37.29
2017-12-29T15:44:50.083Z,35.94
2017-12-29T15:45:50.084Z,38.06
2017-12-29T15:46:50.086Z,37.67
2017-12-29T15:47:50.360Z,39.12
2017-12-29T15:48:50.289Z,39.32
2017-12-29T15:49:50.080Z,38.54
2017-12-29T15:50:50.078Z,37.67
2017-12-29T15:51:50.092Z,37.38
2017-12-29T15:52:50.092Z,35.74
2017-12-29T15:53:50.087Z,36.13
2017-12-29T15:54:50.084Z,35.47
2017-12-29T15:55:50.084Z,36.32
2017-12-29T15:56:50.092Z,37.19
2017-12-29T15:57:50.111Z,38.35
2017-12-29T15:58:50.091Z,38.25
2017-12-29T15:59:50.094Z,35.86
2017-12-29T16:00:50.287Z,37.19
2017-12-29T16:01:50.086Z,36.44
2017-12-29T16:02:50.293Z,36.22
2017-12-29T16:03:50.126Z,36.24
2017-12-29T16:04:50.291Z,35.95
2017-12-29T16:05:50.093Z,36.05
2017-12-29T16:06:50.091Z,35.95
2017-12-29T16:07:50.093Z,35.57
2017-12-29T16:08:50.090Z,36.44
2017-12-29T16:09:50.091Z,35.37
2017-12-29T16:10:50.097Z,35.86
2017-12-29T16:11:50.093Z,36.15
2017-12-29T16:12:50.297Z,37.30
2017-12-29T16:13:50.099Z,36.82
2017-12-29T16:14:50.099Z,36.53
2017-12-29T16:15:50.104Z,36.05
2017-12-29T16:16:50.097Z,35.76
2017-12-29T16:17:50.102Z,36.53
2017-12-29T16:18:50.102Z,36.05
2017-12-29T16:19:50.107Z,36.15
2017-12-29T16:20:50.100Z,36.15
2017-12-29T16:21:50.107Z,35.86
2017-12-29T16:22:50.119Z,37.02
2017-12-29T16:23:50.103Z,37.02
2017-12-29T16:24:50.103Z,36.92
2017-12-29T16:25:50.115Z,36.72
2017-12-29T16:26:50.106Z,36.24
2017-12-29T16:27:50.114Z,36.44
2017-12-29T16:28:50.109Z,35.86
2017-12-29T16:29:50.111Z,37.02
2017-12-29T16:30:50.314Z,35.86
2017-12-29T16:31:50.114Z,36.05
2017-12-29T16:32:50.314Z,36.44
2017-12-29T16:33:50.119Z,36.34
2017-12-29T16:34:50.118Z,36.92
2017-12-29T16:35:50.317Z,35.76
2017-12-29T16:36:50.121Z,36.82
2017-12-29T16:37:50.136Z,36.24
2017-12-29T16:38:50.318Z,37.12
2017-12-29T16:39:50.119Z,36.05
2017-12-29T16:40:50.117Z,35.95
2017-12-29T16:41:50.118Z,35.68
2017-12-29T16:42:50.122Z,36.53
2017-12-29T16:43:50.320Z,36.53
2017-12-29T16:44:50.128Z,36.05
2017-12-29T16:45:50.136Z,36.05
2017-12-29T16:46:50.326Z,36.24
2017-12-29T16:47:50.176Z,36.46
2017-12-29T16:48:50.144Z,35.95
2017-12-29T16:49:50.133Z,35.76
2017-12-29T16:50:50.139Z,35.95
2017-12-29T16:51:50.130Z,35.47
2017-12-29T16:52:50.138Z,35.28
2017-12-29T16:53:50.129Z,34.99
2017-12-29T16:54:50.130Z,35.95
2017-12-29T16:55:50.138Z,35.95
2017-12-29T16:56:50.151Z,36.24
2017-12-29T16:57:50.333Z,36.92
2017-12-29T16:58:50.144Z,36.24
2017-12-29T16:59:50.135Z,36.15
2017-12-29T17:00:50.138Z,35.88
2017-12-29T17:01:50.144Z,35.86
2017-12-29T17:02:50.142Z,35.37
2017-12-29T17:03:50.183Z,35.47
2017-12-29T17:04:50.144Z,35.47
2017-12-29T17:05:50.186Z,35.58
2017-12-29T17:06:50.142Z,35.47
2017-12-29T17:07:50.346Z,37.21
2017-12-29T17:08:50.148Z,35.76
2017-12-29T17:09:50.163Z,36.36
2017-12-29T17:10:50.158Z,36.34
2017-12-29T17:11:50.154Z,36.24
2017-12-29T17:12:50.156Z,36.36
2017-12-29T17:13:50.355Z,37.21
2017-12-29T17:14:50.155Z,36.05
2017-12-29T17:15:50.356Z,35.78
2017-12-29T17:16:50.152Z,36.46
2017-12-29T17:17:50.153Z,36.15
2017-12-29T17:18:50.354Z,36.46
2017-12-29T17:19:50.163Z,35.97
2017-12-29T17:20:50.354Z,36.26
2017-12-29T17:21:50.359Z,36.16
2017-12-29T17:22:50.165Z,36.26
2017-12-29T17:23:50.182Z,37.62
2017-12-29T17:24:50.164Z,35.39
2017-12-29T17:25:50.164Z,36.26
2017-12-29T17:26:50.366Z,36.55
2017-12-29T17:27:50.164Z,36.55
2017-12-29T17:28:50.168Z,36.16
2017-12-29T17:29:50.167Z,36.44
2017-12-29T17:30:50.167Z,36.16
2017-12-29T17:31:50.175Z,36.55
2017-12-29T17:32:50.379Z,36.26
2017-12-29T17:33:50.169Z,36.16
2017-12-29T17:34:50.174Z,36.16
2017-12-29T17:35:50.172Z,35.97
2017-12-29T17:36:50.174Z,36.26
2017-12-29T17:37:50.176Z,35.78
2017-12-29T17:38:50.183Z,35.78
2017-12-29T17:39:50.184Z,36.16
2017-12-29T17:40:50.177Z,36.07
2017-12-29T17:41:50.189Z,36.07
2017-12-29T17:42:50.187Z,36.07
2017-12-29T17:43:50.389Z,36.07
2017-12-29T17:44:50.189Z,36.36
2017-12-29T17:45:50.385Z,35.97
2017-12-29T17:46:50.382Z,35.78
2017-12-29T17:47:50.191Z,35.88
2017-12-29T17:48:50.191Z,35.78
2017-12-29T17:49:50.191Z,36.07
2017-12-29T17:50:50.199Z,36.07
2017-12-29T17:51:50.390Z,35.88
2017-12-29T17:52:50.198Z,36.16
2017-12-29T17:53:50.194Z,35.88
2017-12-29T17:54:50.199Z,36.16
2017-12-29T17:55:50.194Z,36.26
2017-12-29T17:56:50.199Z,35.49
2017-12-29T17:57:50.202Z,35.88
2017-12-29T17:58:50.196Z,35.78
2017-12-29T17:59:50.408Z,36.16
2017-12-29T18:00:50.198Z,35.78
2017-12-29T18:01:50.203Z,35.97
2017-12-29T18:02:50.404Z,35.39
2017-12-29T18:03:50.210Z,35.88
2017-12-29T18:04:50.216Z,35.47
2017-12-29T18:05:50.202Z,35.58
2017-12-29T18:06:50.206Z,35.68
2017-12-29T18:07:50.205Z,35.66
2017-12-29T18:08:50.229Z,34.91
2017-12-29T18:09:50.214Z,34.91
2017-12-29T18:10:50.215Z,36.55
2017-12-29T18:11:50.218Z,35.58
2017-12-29T18:12:50.214Z,35.39
2017-12-29T18:13:50.219Z,35.49
2017-12-29T18:14:50.216Z,35.39
2017-12-29T18:15:50.216Z,35.49
2017-12-29T18:16:50.254Z,35.29
2017-12-29T18:17:50.303Z,35.68
2017-12-29T18:18:50.276Z,35.78
2017-12-29T18:19:50.231Z,36.26
2017-12-29T18:20:50.441Z,36.07
2017-12-29T18:21:50.227Z,35.78
2017-12-29T18:22:50.733Z,36.26
2017-12-29T18:23:50.222Z,35.88
2017-12-29T18:24:50.226Z,35.39
2017-12-29T18:25:50.234Z,35.88
2017-12-29T18:26:50.231Z,35.97
2017-12-29T18:27:50.226Z,36.16
2017-12-29T18:28:50.237Z,36.26
2017-12-29T18:29:50.232Z,36.07
2017-12-29T18:30:50.236Z,36.26
2017-12-29T18:31:50.432Z,36.46
2017-12-29T18:32:50.233Z,35.58
2017-12-29T18:33:50.437Z,35.49
2017-12-29T18:34:50.240Z,35.68
2017-12-29T18:35:50.237Z,35.00
2017-12-29T18:36:50.234Z,35.20
2017-12-29T18:37:50.240Z,34.91
2017-12-29T18:38:50.239Z,35.00
2017-12-29T18:39:50.462Z,30.62
2017-12-29T18:40:50.247Z,32.56
2017-12-29T18:41:50.247Z,32.84
2017-12-29T18:42:50.244Z,34.60
2017-12-29T18:43:50.247Z,34.58
2017-12-29T18:44:50.450Z,34.00
2017-12-29T18:45:50.248Z,34.20
2017-12-29T18:46:50.245Z,33.72
2017-12-29T18:47:50.251Z,33.52
2017-12-29T18:48:50.254Z,33.91
2017-12-29T18:49:50.258Z,33.72
2017-12-29T18:50:50.255Z,33.73
2017-12-29T18:51:50.255Z,34.00
2017-12-29T18:52:50.251Z,34.20
2017-12-29T18:53:50.252Z,33.62
2017-12-29T18:54:50.261Z,33.54
2017-12-29T18:55:50.468Z,33.73
2017-12-29T18:56:50.460Z,33.42
2017-12-29T18:57:50.265Z,33.52
2017-12-29T18:58:50.266Z,33.33
2017-12-29T18:59:50.264Z,33.52
2017-12-29T19:00:50.464Z,33.42
2017-12-29T19:01:50.472Z,33.34
2017-12-29T19:02:50.467Z,32.96
2017-12-29T19:03:50.263Z,33.44
2017-12-29T19:04:50.273Z,33.23
2017-12-29T19:05:50.271Z,32.56
2017-12-29T19:06:50.470Z,32.46
2017-12-29T19:07:50.268Z,32.56
2017-12-29T19:08:50.276Z,32.26
2017-12-29T19:09:50.271Z,32.65
2017-12-29T19:10:50.276Z,32.94
2017-12-29T19:11:50.280Z,33.42
2017-12-29T19:12:50.476Z,32.46
2017-12-29T19:13:50.272Z,31.98
2017-12-29T19:14:50.279Z,31.78
2017-12-29T19:15:50.281Z,33.33
2017-12-29T19:16:50.481Z,32.46
2017-12-29T19:17:50.276Z,32.36
2017-12-29T19:18:50.482Z,32.46
2017-12-29T19:19:50.289Z,32.17
2017-12-29T19:20:50.277Z,32.56
2017-12-29T19:21:50.277Z,32.46
2017-12-29T19:22:50.289Z,31.68
2017-12-29T19:23:50.489Z,32.65
2017-12-29T19:24:50.488Z,31.98
2017-12-29T19:25:50.284Z,32.26
2017-12-29T19:26:50.292Z,31.98
2017-12-29T19:27:50.509Z,31.88
2017-12-29T19:28:50.289Z,31.78
2017-12-29T19:29:50.297Z,31.68
2017-12-29T19:30:50.291Z,32.07
2017-12-29T19:31:50.286Z,31.68
2017-12-29T19:32:50.285Z,31.78
2017-12-29T19:33:50.299Z,32.26
2017-12-29T19:34:50.292Z,31.68
2017-12-29T19:35:50.289Z,32.07
2017-12-29T19:36:50.493Z,31.98
2017-12-29T19:37:50.500Z,32.07
2017-12-29T19:38:50.299Z,31.78
2017-12-29T19:39:50.292Z,31.88
2017-12-29T19:40:50.311Z,31.68
2017-12-29T19:41:50.306Z,32.36
2017-12-29T19:42:50.294Z,31.68
2017-12-29T19:43:50.300Z,31.98
2017-12-29T19:44:50.297Z,32.36
2017-12-29T19:45:50.306Z,31.98
2017-12-29T19:46:50.297Z,32.07
2017-12-29T19:47:50.299Z,32.46
2017-12-29T19:48:50.298Z,31.98
2017-12-29T19:49:50.311Z,32.17
2017-12-29T19:50:50.313Z,32.26
2017-12-29T19:51:50.305Z,33.33
2017-12-29T19:52:50.510Z,33.33
2017-12-29T19:53:50.507Z,32.94
2017-12-29T19:54:50.508Z,33.42
2017-12-29T19:55:50.308Z,32.56
2017-12-29T19:56:50.315Z,33.42
2017-12-29T19:57:50.339Z,33.52
2017-12-29T19:58:50.517Z,33.23
2017-12-29T19:59:50.326Z,32.84
2017-12-29T20:00:50.318Z,33.62
2017-12-29T20:01:50.314Z,33.33
2017-12-29T20:02:50.318Z,34.02
2017-12-29T20:03:50.318Z,32.84
2017-12-29T20:04:50.515Z,33.25
2017-12-29T20:05:50.522Z,33.62
2017-12-29T20:06:50.316Z,33.62
2017-12-29T20:07:50.321Z,33.34
2017-12-29T20:08:50.516Z,34.10
2017-12-29T20:09:50.347Z,35.08
2017-12-29T20:10:50.327Z,32.26
2017-12-29T20:11:50.534Z,33.33
2017-12-29T20:12:50.327Z,35.06
2017-12-29T20:13:50.369Z,34.29
2017-12-29T20:14:50.525Z,34.29
2017-12-29T20:15:50.329Z,34.39
2017-12-29T20:16:50.328Z,35.16
2017-12-29T20:17:50.329Z,34.70
2017-12-29T20:18:50.338Z,35.06
2017-12-29T20:19:50.525Z,35.45
2017-12-29T20:20:50.329Z,35.36
2017-12-29T20:21:50.524Z,35.64
2017-12-29T20:22:50.379Z,35.47